sensor_id;sensor_type;location;lat;lon;timestamp;P1;durP1;ratioP1;P2;durP2;ratioP2
2710;SDS011;20721;47.402;8.550;2022-08-19T00:00:19;8.69;;;8.69;;
2710;SDS011;20721;47.402;8.550;2022-08-19T00:01:18;8.11;;;8.10;;
2710;SDS011;20721;47.402;8.550;2022-08-19T00:02:18;8.76;;;8.76;;
2710;SDS011;20721;47.402;8.550;2022-08-19T00:03:18;8.13;;;8.13;;
2710;SDS011;20721;47.402;8.550;2022-08-19T00:05:19;7.54;;;7.54;;
2710;SDS011;20721;47.402;8.550;2022-08-19T00:06:18;7.63;;;7.63;;
2710;SDS011;20721;47.402;8.550;2022-08-19T00:09:20;8.29;;;8.11;;
2710;SDS011;20721;47.402;8.550;2022-08-19T00:10:19;7.12;;;6.90;;
2710;SDS011;20721;47.402;8.550;2022-08-19T00:11:25;7.36;;;7.36;;
2710;SDS011;20721;47.402;8.550;2022-08-19T00:12:18;6.22;;;6.22;;
2710;SDS011;20721;47.402;8.550;2022-08-19T00:13:18;6.84;;;6.84;;
2710;SDS011;20721;47.402;8.550;2022-08-19T00:14:20;6.46;;;6.46;;
2710;SDS011;20721;47.402;8.550;2022-08-19T00:15:24;6.19;;;6.19;;
2710;SDS011;20721;47.402;8.550;2022-08-19T00:16:18;6.43;;;6.43;;
2710;SDS011;20721;47.402;8.550;2022-08-19T00:17:18;5.70;;;5.70;;
2710;SDS011;20721;47.402;8.550;2022-08-19T00:18:18;5.28;;;5.28;;
2710;SDS011;20721;47.402;8.550;2022-08-19T00:20:20;5.57;;;5.57;;
2710;SDS011;20721;47.402;8.550;2022-08-19T00:21:18;5.27;;;5.27;;
2710;SDS011;20721;47.402;8.550;2022-08-19T00:22:18;5.61;;;5.59;;
2710;SDS011;20721;47.402;8.550;2022-08-19T00:23:18;5.60;;;5.60;;
2710;SDS011;20721;47.402;8.550;2022-08-19T00:26:18;6.22;;;6.15;;
2710;SDS011;20721;47.402;8.550;2022-08-19T00:27:28;5.81;;;5.78;;
2710;SDS011;20721;47.402;8.550;2022-08-19T00:31:18;7.01;;;7.01;;
2710;SDS011;20721;47.402;8.550;2022-08-19T00:32:22;6.67;;;6.67;;
2710;SDS011;20721;47.402;8.550;2022-08-19T00:33:18;6.54;;;6.54;;
2710;SDS011;20721;47.402;8.550;2022-08-19T00:34:18;6.93;;;6.75;;
2710;SDS011;20721;47.402;8.550;2022-08-19T00:35:18;7.26;;;7.18;;
2710;SDS011;20721;47.402;8.550;2022-08-19T00:36:19;6.91;;;6.83;;
2710;SDS011;20721;47.402;8.550;2022-08-19T00:37:19;7.76;;;7.61;;
2710;SDS011;20721;47.402;8.550;2022-08-19T00:38:18;7.51;;;7.33;;
2710;SDS011;20721;47.402;8.550;2022-08-19T00:39:18;8.10;;;7.95;;
2710;SDS011;20721;47.402;8.550;2022-08-19T00:40:19;7.76;;;7.58;;
2710;SDS011;20721;47.402;8.550;2022-08-19T00:41:23;8.01;;;7.80;;
2710;SDS011;20721;47.402;8.550;2022-08-19T00:42:19;6.97;;;6.93;;
2710;SDS011;20721;47.402;8.550;2022-08-19T00:43:20;8.46;;;8.42;;
2710;SDS011;20721;47.402;8.550;2022-08-19T00:44:21;8.18;;;8.11;;
2710;SDS011;20721;47.402;8.550;2022-08-19T00:45:21;7.53;;;7.53;;
2710;SDS011;20721;47.402;8.550;2022-08-19T00:46:18;8.63;;;8.63;;
2710;SDS011;20721;47.402;8.550;2022-08-19T00:47:24;8.71;;;8.71;;
2710;SDS011;20721;47.402;8.550;2022-08-19T00:49:34;8.55;;;8.39;;
2710;SDS011;20721;47.402;8.550;2022-08-19T00:50:19;8.30;;;8.19;;
2710;SDS011;20721;47.402;8.550;2022-08-19T00:51:18;9.03;;;8.99;;
2710;SDS011;20721;47.402;8.550;2022-08-19T00:52:23;8.04;;;7.86;;
2710;SDS011;20721;47.402;8.550;2022-08-19T00:54:19;9.46;;;9.34;;
2710;SDS011;20721;47.402;8.550;2022-08-19T00:55:23;9.34;;;9.17;;
2710;SDS011;20721;47.402;8.550;2022-08-19T00:56:18;9.59;;;9.45;;
2710;SDS011;20721;47.402;8.550;2022-08-19T00:57:22;9.34;;;9.14;;
2710;SDS011;20721;47.402;8.550;2022-08-19T00:58:20;9.63;;;9.41;;
2710;SDS011;20721;47.402;8.550;2022-08-19T00:59:19;10.54;;;10.25;;
2710;SDS011;20721;47.402;8.550;2022-08-19T01:00:23;9.83;;;9.59;;
2710;SDS011;20721;47.402;8.550;2022-08-19T01:01:18;9.69;;;9.55;;
2710;SDS011;20721;47.402;8.550;2022-08-19T01:02:18;9.30;;;9.13;;
2710;SDS011;20721;47.402;8.550;2022-08-19T01:03:20;9.68;;;9.52;;
2710;SDS011;20721;47.402;8.550;2022-08-19T01:04:18;10.36;;;10.20;;
2710;SDS011;20721;47.402;8.550;2022-08-19T01:05:21;8.78;;;8.65;;
2710;SDS011;20721;47.402;8.550;2022-08-19T01:06:18;9.30;;;9.13;;
2710;SDS011;20721;47.402;8.550;2022-08-19T01:07:18;10.06;;;9.94;;
2710;SDS011;20721;47.402;8.550;2022-08-19T01:08:19;10.01;;;9.81;;
2710;SDS011;20721;47.402;8.550;2022-08-19T01:09:18;10.40;;;10.14;;
2710;SDS011;20721;47.402;8.550;2022-08-19T01:10:21;10.90;;;10.60;;
2710;SDS011;20721;47.402;8.550;2022-08-19T01:11:19;9.72;;;9.72;;
2710;SDS011;20721;47.402;8.550;2022-08-19T01:12:18;9.19;;;9.19;;
2710;SDS011;20721;47.402;8.550;2022-08-19T01:13:19;10.23;;;10.05;;
2710;SDS011;20721;47.402;8.550;2022-08-19T01:14:18;10.50;;;10.27;;
2710;SDS011;20721;47.402;8.550;2022-08-19T01:15:21;10.75;;;10.39;;
2710;SDS011;20721;47.402;8.550;2022-08-19T01:16:20;9.95;;;9.90;;
2710;SDS011;20721;47.402;8.550;2022-08-19T01:17:19;10.65;;;10.45;;
2710;SDS011;20721;47.402;8.550;2022-08-19T01:19:28;10.45;;;10.17;;
2710;SDS011;20721;47.402;8.550;2022-08-19T01:21:24;9.29;;;9.28;;
2710;SDS011;20721;47.402;8.550;2022-08-19T01:22:37;10.12;;;10.00;;
2710;SDS011;20721;47.402;8.550;2022-08-19T01:23:18;10.90;;;10.56;;
2710;SDS011;20721;47.402;8.550;2022-08-19T01:24:18;10.41;;;10.16;;
2710;SDS011;20721;47.402;8.550;2022-08-19T01:25:31;10.48;;;10.19;;
2710;SDS011;20721;47.402;8.550;2022-08-19T01:26:21;11.09;;;10.74;;
2710;SDS011;20721;47.402;8.550;2022-08-19T01:27:21;10.28;;;10.10;;
2710;SDS011;20721;47.402;8.550;2022-08-19T01:28:31;10.49;;;10.45;;
2710;SDS011;20721;47.402;8.550;2022-08-19T01:29:20;10.44;;;10.37;;
2710;SDS011;20721;47.402;8.550;2022-08-19T01:30:21;9.65;;;9.65;;
2710;SDS011;20721;47.402;8.550;2022-08-19T01:32:29;11.83;;;11.63;;
2710;SDS011;20721;47.402;8.550;2022-08-19T01:33:18;11.33;;;11.30;;
2710;SDS011;20721;47.402;8.550;2022-08-19T01:35:19;10.79;;;10.73;;
2710;SDS011;20721;47.402;8.550;2022-08-19T01:37:19;11.96;;;11.58;;
2710;SDS011;20721;47.402;8.550;2022-08-19T01:38:28;10.98;;;10.60;;
2710;SDS011;20721;47.402;8.550;2022-08-19T01:39:23;11.46;;;11.11;;
2710;SDS011;20721;47.402;8.550;2022-08-19T01:40:21;10.37;;;10.12;;
2710;SDS011;20721;47.402;8.550;2022-08-19T01:41:21;11.99;;;11.61;;
2710;SDS011;20721;47.402;8.550;2022-08-19T01:42:19;11.34;;;10.94;;
2710;SDS011;20721;47.402;8.550;2022-08-19T01:43:18;11.99;;;11.63;;
2710;SDS011;20721;47.402;8.550;2022-08-19T01:44:30;11.20;;;10.99;;
2710;SDS011;20721;47.402;8.550;2022-08-19T01:45:19;12.03;;;12.01;;
2710;SDS011;20721;47.402;8.550;2022-08-19T01:47:19;11.67;;;11.49;;
2710;SDS011;20721;47.402;8.550;2022-08-19T01:48:18;11.32;;;11.07;;
2710;SDS011;20721;47.402;8.550;2022-08-19T01:49:20;11.43;;;11.21;;
2710;SDS011;20721;47.402;8.550;2022-08-19T01:50:19;11.35;;;11.24;;
2710;SDS011;20721;47.402;8.550;2022-08-19T01:51:19;11.24;;;10.83;;
2710;SDS011;20721;47.402;8.550;2022-08-19T01:55:20;12.20;;;11.96;;
2710;SDS011;20721;47.402;8.550;2022-08-19T01:58:29;10.97;;;10.82;;
2710;SDS011;20721;47.402;8.550;2022-08-19T02:00:21;11.74;;;11.58;;
2710;SDS011;20721;47.402;8.550;2022-08-19T02:02:18;11.75;;;11.35;;
2710;SDS011;20721;47.402;8.550;2022-08-19T02:03:19;12.46;;;12.19;;
2710;SDS011;20721;47.402;8.550;2022-08-19T02:04:18;12.01;;;11.59;;
2710;SDS011;20721;47.402;8.550;2022-08-19T02:06:18;11.62;;;11.35;;
2710;SDS011;20721;47.402;8.550;2022-08-19T02:09:18;11.88;;;11.86;;
2710;SDS011;20721;47.402;8.550;2022-08-19T02:10:26;12.61;;;12.39;;
2710;SDS011;20721;47.402;8.550;2022-08-19T02:11:19;12.60;;;12.37;;
2710;SDS011;20721;47.402;8.550;2022-08-19T02:12:18;13.91;;;13.52;;
2710;SDS011;20721;47.402;8.550;2022-08-19T02:13:18;12.69;;;12.14;;
2710;SDS011;20721;47.402;8.550;2022-08-19T02:14:18;12.61;;;12.02;;
2710;SDS011;20721;47.402;8.550;2022-08-19T02:15:19;11.54;;;11.19;;
2710;SDS011;20721;47.402;8.550;2022-08-19T02:16:18;12.16;;;11.76;;
2710;SDS011;20721;47.402;8.550;2022-08-19T02:17:18;12.49;;;12.18;;
2710;SDS011;20721;47.402;8.550;2022-08-19T02:18:18;12.44;;;11.98;;
2710;SDS011;20721;47.402;8.550;2022-08-19T02:19:18;12.53;;;11.97;;
2710;SDS011;20721;47.402;8.550;2022-08-19T02:20:18;12.26;;;11.78;;
2710;SDS011;20721;47.402;8.550;2022-08-19T02:23:25;12.17;;;11.92;;
2710;SDS011;20721;47.402;8.550;2022-08-19T02:24:18;11.27;;;10.99;;
2710;SDS011;20721;47.402;8.550;2022-08-19T02:25:19;12.87;;;12.42;;
2710;SDS011;20721;47.402;8.550;2022-08-19T02:27:18;12.46;;;12.05;;
2710;SDS011;20721;47.402;8.550;2022-08-19T02:28:18;12.55;;;12.25;;
2710;SDS011;20721;47.402;8.550;2022-08-19T02:29:18;13.14;;;12.77;;
2710;SDS011;20721;47.402;8.550;2022-08-19T02:32:18;13.04;;;12.65;;
2710;SDS011;20721;47.402;8.550;2022-08-19T02:37:28;13.45;;;13.14;;
2710;SDS011;20721;47.402;8.550;2022-08-19T02:41:24;13.37;;;12.97;;
2710;SDS011;20721;47.402;8.550;2022-08-19T02:43:19;13.55;;;13.13;;
2710;SDS011;20721;47.402;8.550;2022-08-19T02:44:28;13.21;;;12.73;;
2710;SDS011;20721;47.402;8.550;2022-08-19T02:45:19;12.18;;;11.79;;
2710;SDS011;20721;47.402;8.550;2022-08-19T02:48:29;13.74;;;13.45;;
2710;SDS011;20721;47.402;8.550;2022-08-19T02:49:18;13.41;;;13.11;;
2710;SDS011;20721;47.402;8.550;2022-08-19T02:50:18;13.56;;;13.26;;
2710;SDS011;20721;47.402;8.550;2022-08-19T02:51:19;13.74;;;13.44;;
2710;SDS011;20721;47.402;8.550;2022-08-19T02:52:18;12.87;;;12.62;;
2710;SDS011;20721;47.402;8.550;2022-08-19T02:54:20;13.16;;;12.92;;
2710;SDS011;20721;47.402;8.550;2022-08-19T02:56:18;13.70;;;13.69;;
2710;SDS011;20721;47.402;8.550;2022-08-19T02:57:18;13.17;;;12.91;;
2710;SDS011;20721;47.402;8.550;2022-08-19T02:58:19;13.48;;;13.26;;
2710;SDS011;20721;47.402;8.550;2022-08-19T03:01:20;12.58;;;12.43;;
2710;SDS011;20721;47.402;8.550;2022-08-19T03:02:18;13.45;;;13.16;;
2710;SDS011;20721;47.402;8.550;2022-08-19T03:03:18;13.17;;;12.87;;
2710;SDS011;20721;47.402;8.550;2022-08-19T03:04:19;13.79;;;13.48;;
2710;SDS011;20721;47.402;8.550;2022-08-19T03:06:20;12.75;;;12.51;;
2710;SDS011;20721;47.402;8.550;2022-08-19T03:07:23;14.10;;;13.91;;
2710;SDS011;20721;47.402;8.550;2022-08-19T03:09:19;14.33;;;14.01;;
2710;SDS011;20721;47.402;8.550;2022-08-19T03:10:18;12.61;;;12.38;;
2710;SDS011;20721;47.402;8.550;2022-08-19T03:13:18;13.76;;;13.50;;
2710;SDS011;20721;47.402;8.550;2022-08-19T03:14:19;13.93;;;13.44;;
2710;SDS011;20721;47.402;8.550;2022-08-19T03:15:18;15.78;;;15.10;;
2710;SDS011;20721;47.402;8.550;2022-08-19T03:16:19;15.36;;;15.06;;
2710;SDS011;20721;47.402;8.550;2022-08-19T03:17:19;13.85;;;13.56;;
2710;SDS011;20721;47.402;8.550;2022-08-19T03:18:19;14.81;;;14.52;;
2710;SDS011;20721;47.402;8.550;2022-08-19T03:19:19;14.49;;;14.19;;
2710;SDS011;20721;47.402;8.550;2022-08-19T03:20:18;13.92;;;13.92;;
2710;SDS011;20721;47.402;8.550;2022-08-19T03:21:32;14.49;;;14.23;;
2710;SDS011;20721;47.402;8.550;2022-08-19T03:28:20;13.78;;;13.32;;
2710;SDS011;20721;47.402;8.550;2022-08-19T03:29:21;14.11;;;13.62;;
2710;SDS011;20721;47.402;8.550;2022-08-19T03:30:22;13.79;;;13.45;;
2710;SDS011;20721;47.402;8.550;2022-08-19T03:31:30;14.79;;;14.32;;
2710;SDS011;20721;47.402;8.550;2022-08-19T03:32:28;14.29;;;13.85;;
2710;SDS011;20721;47.402;8.550;2022-08-19T03:33:19;13.28;;;12.92;;
2710;SDS011;20721;47.402;8.550;2022-08-19T03:34:20;13.76;;;13.51;;
2710;SDS011;20721;47.402;8.550;2022-08-19T03:35:18;14.23;;;14.01;;
2710;SDS011;20721;47.402;8.550;2022-08-19T03:36:22;13.53;;;13.27;;
2710;SDS011;20721;47.402;8.550;2022-08-19T03:38:18;13.60;;;13.33;;
2710;SDS011;20721;47.402;8.550;2022-08-19T03:39:20;14.29;;;13.92;;
2710;SDS011;20721;47.402;8.550;2022-08-19T03:40:24;13.62;;;13.23;;
2710;SDS011;20721;47.402;8.550;2022-08-19T03:42:28;13.49;;;13.17;;
2710;SDS011;20721;47.402;8.550;2022-08-19T03:43:18;13.16;;;12.89;;
2710;SDS011;20721;47.402;8.550;2022-08-19T03:45:18;13.09;;;12.97;;
2710;SDS011;20721;47.402;8.550;2022-08-19T03:46:22;13.84;;;13.66;;
2710;SDS011;20721;47.402;8.550;2022-08-19T03:47:18;12.83;;;12.60;;
2710;SDS011;20721;47.402;8.550;2022-08-19T03:49:19;13.94;;;13.76;;
2710;SDS011;20721;47.402;8.550;2022-08-19T03:51:26;13.41;;;13.11;;
2710;SDS011;20721;47.402;8.550;2022-08-19T03:52:18;13.11;;;12.92;;
2710;SDS011;20721;47.402;8.550;2022-08-19T03:53:18;13.23;;;13.02;;
2710;SDS011;20721;47.402;8.550;2022-08-19T03:55:18;14.79;;;14.37;;
2710;SDS011;20721;47.402;8.550;2022-08-19T03:58:18;15.23;;;14.67;;
2710;SDS011;20721;47.402;8.550;2022-08-19T03:59:25;15.28;;;14.91;;
2710;SDS011;20721;47.402;8.550;2022-08-19T04:00:24;15.31;;;14.82;;
2710;SDS011;20721;47.402;8.550;2022-08-19T04:01:21;15.07;;;14.66;;
2710;SDS011;20721;47.402;8.550;2022-08-19T04:03:18;16.29;;;15.57;;
2710;SDS011;20721;47.402;8.550;2022-08-19T04:04:19;17.59;;;16.91;;
2710;SDS011;20721;47.402;8.550;2022-08-19T04:05:18;15.84;;;15.48;;
2710;SDS011;20721;47.402;8.550;2022-08-19T04:07:20;16.16;;;15.75;;
2710;SDS011;20721;47.402;8.550;2022-08-19T04:08:26;16.36;;;15.98;;
2710;SDS011;20721;47.402;8.550;2022-08-19T04:09:19;15.99;;;15.68;;
2710;SDS011;20721;47.402;8.550;2022-08-19T04:10:21;17.90;;;17.21;;
2710;SDS011;20721;47.402;8.550;2022-08-19T04:11:21;19.20;;;18.09;;
2710;SDS011;20721;47.402;8.550;2022-08-19T04:12:18;18.59;;;17.80;;
2710;SDS011;20721;47.402;8.550;2022-08-19T04:13:19;17.59;;;17.17;;
2710;SDS011;20721;47.402;8.550;2022-08-19T04:14:20;16.79;;;16.50;;
2710;SDS011;20721;47.402;8.550;2022-08-19T04:15:18;16.85;;;16.54;;
2710;SDS011;20721;47.402;8.550;2022-08-19T04:18:19;17.29;;;16.91;;
2710;SDS011;20721;47.402;8.550;2022-08-19T04:19:19;16.46;;;16.17;;
2710;SDS011;20721;47.402;8.550;2022-08-19T04:21:25;16.55;;;16.32;;
2710;SDS011;20721;47.402;8.550;2022-08-19T04:22:19;16.44;;;16.15;;
2710;SDS011;20721;47.402;8.550;2022-08-19T04:23:18;18.15;;;17.55;;
2710;SDS011;20721;47.402;8.550;2022-08-19T04:24:19;17.40;;;16.73;;
2710;SDS011;20721;47.402;8.550;2022-08-19T04:25:19;17.86;;;17.19;;
2710;SDS011;20721;47.402;8.550;2022-08-19T04:26:25;16.32;;;15.78;;
2710;SDS011;20721;47.402;8.550;2022-08-19T04:27:18;16.87;;;16.39;;
2710;SDS011;20721;47.402;8.550;2022-08-19T04:28:21;18.02;;;17.43;;
2710;SDS011;20721;47.402;8.550;2022-08-19T04:29:26;17.02;;;16.43;;
2710;SDS011;20721;47.402;8.550;2022-08-19T04:31:24;17.53;;;17.24;;
2710;SDS011;20721;47.402;8.550;2022-08-19T04:32:20;16.75;;;16.57;;
2710;SDS011;20721;47.402;8.550;2022-08-19T04:33:20;17.23;;;16.88;;
2710;SDS011;20721;47.402;8.550;2022-08-19T04:34:23;17.84;;;17.42;;
2710;SDS011;20721;47.402;8.550;2022-08-19T04:35:28;17.50;;;16.92;;
2710;SDS011;20721;47.402;8.550;2022-08-19T04:36:30;17.65;;;16.93;;
2710;SDS011;20721;47.402;8.550;2022-08-19T04:37:21;17.23;;;16.81;;
2710;SDS011;20721;47.402;8.550;2022-08-19T04:38:20;18.47;;;17.92;;
2710;SDS011;20721;47.402;8.550;2022-08-19T04:42:28;18.54;;;18.22;;
2710;SDS011;20721;47.402;8.550;2022-08-19T04:43:19;17.67;;;17.40;;
2710;SDS011;20721;47.402;8.550;2022-08-19T04:46:22;18.94;;;18.55;;
2710;SDS011;20721;47.402;8.550;2022-08-19T04:47:21;17.56;;;17.23;;
2710;SDS011;20721;47.402;8.550;2022-08-19T04:48:35;19.25;;;18.56;;
2710;SDS011;20721;47.402;8.550;2022-08-19T04:49:24;17.79;;;17.29;;
2710;SDS011;20721;47.402;8.550;2022-08-19T04:50:20;17.79;;;17.23;;
2710;SDS011;20721;47.402;8.550;2022-08-19T04:51:20;17.23;;;16.76;;
2710;SDS011;20721;47.402;8.550;2022-08-19T04:52:18;16.64;;;16.09;;
2710;SDS011;20721;47.402;8.550;2022-08-19T04:53:18;17.05;;;16.66;;
2710;SDS011;20721;47.402;8.550;2022-08-19T04:56:22;16.21;;;15.75;;
2710;SDS011;20721;47.402;8.550;2022-08-19T04:57:19;17.50;;;16.94;;
2710;SDS011;20721;47.402;8.550;2022-08-19T04:58:18;17.59;;;16.95;;
2710;SDS011;20721;47.402;8.550;2022-08-19T05:00:19;16.65;;;16.27;;
2710;SDS011;20721;47.402;8.550;2022-08-19T05:01:24;15.89;;;15.50;;
2710;SDS011;20721;47.402;8.550;2022-08-19T05:02:19;15.24;;;14.68;;
2710;SDS011;20721;47.402;8.550;2022-08-19T05:03:19;14.31;;;14.00;;
2710;SDS011;20721;47.402;8.550;2022-08-19T05:04:19;14.40;;;14.38;;
2710;SDS011;20721;47.402;8.550;2022-08-19T05:05:19;13.05;;;13.05;;
2710;SDS011;20721;47.402;8.550;2022-08-19T05:06:21;14.91;;;14.68;;
2710;SDS011;20721;47.402;8.550;2022-08-19T05:07:19;14.86;;;14.46;;
2710;SDS011;20721;47.402;8.550;2022-08-19T05:08:19;14.89;;;14.53;;
2710;SDS011;20721;47.402;8.550;2022-08-19T05:09:19;13.98;;;13.88;;
2710;SDS011;20721;47.402;8.550;2022-08-19T05:11:23;14.65;;;14.54;;
2710;SDS011;20721;47.402;8.550;2022-08-19T05:12:18;13.72;;;13.72;;
2710;SDS011;20721;47.402;8.550;2022-08-19T05:13:20;13.99;;;13.77;;
2710;SDS011;20721;47.402;8.550;2022-08-19T05:14:19;13.63;;;13.21;;
2710;SDS011;20721;47.402;8.550;2022-08-19T05:15:19;15.19;;;14.73;;
2710;SDS011;20721;47.402;8.550;2022-08-19T05:16:20;12.92;;;12.81;;
2710;SDS011;20721;47.402;8.550;2022-08-19T05:19:28;12.83;;;12.60;;
2710;SDS011;20721;47.402;8.550;2022-08-19T05:21:29;14.07;;;13.69;;
2710;SDS011;20721;47.402;8.550;2022-08-19T05:22:28;12.68;;;12.59;;
2710;SDS011;20721;47.402;8.550;2022-08-19T05:23:28;13.28;;;13.07;;
2710;SDS011;20721;47.402;8.550;2022-08-19T05:24:20;12.74;;;12.33;;
2710;SDS011;20721;47.402;8.550;2022-08-19T05:25:25;12.69;;;12.40;;
2710;SDS011;20721;47.402;8.550;2022-08-19T05:26:21;13.00;;;12.65;;
2710;SDS011;20721;47.402;8.550;2022-08-19T05:27:18;12.71;;;12.44;;
2710;SDS011;20721;47.402;8.550;2022-08-19T05:30:20;11.72;;;11.45;;
2710;SDS011;20721;47.402;8.550;2022-08-19T05:31:19;11.90;;;11.78;;
2710;SDS011;20721;47.402;8.550;2022-08-19T05:32:20;13.70;;;13.70;;
2710;SDS011;20721;47.402;8.550;2022-08-19T05:34:32;13.38;;;13.29;;
2710;SDS011;20721;47.402;8.550;2022-08-19T05:35:19;12.79;;;12.32;;
2710;SDS011;20721;47.402;8.550;2022-08-19T05:36:19;12.90;;;12.58;;
2710;SDS011;20721;47.402;8.550;2022-08-19T05:37:19;12.24;;;11.97;;
2710;SDS011;20721;47.402;8.550;2022-08-19T05:38:18;12.72;;;12.72;;
2710;SDS011;20721;47.402;8.550;2022-08-19T05:42:20;11.86;;;11.56;;
2710;SDS011;20721;47.402;8.550;2022-08-19T05:45:19;11.84;;;11.80;;
2710;SDS011;20721;47.402;8.550;2022-08-19T05:47:19;12.16;;;11.91;;
2710;SDS011;20721;47.402;8.550;2022-08-19T05:49:20;11.31;;;11.04;;
2710;SDS011;20721;47.402;8.550;2022-08-19T05:50:19;10.16;;;10.16;;
2710;SDS011;20721;47.402;8.550;2022-08-19T05:51:19;11.04;;;11.04;;
2710;SDS011;20721;47.402;8.550;2022-08-19T05:52:21;11.31;;;11.25;;
2710;SDS011;20721;47.402;8.550;2022-08-19T05:53:19;12.04;;;11.81;;
2710;SDS011;20721;47.402;8.550;2022-08-19T05:54:19;11.42;;;11.33;;
2710;SDS011;20721;47.402;8.550;2022-08-19T05:55:19;11.07;;;10.78;;
2710;SDS011;20721;47.402;8.550;2022-08-19T05:57:22;10.95;;;10.71;;
2710;SDS011;20721;47.402;8.550;2022-08-19T05:58:19;12.42;;;12.41;;
2710;SDS011;20721;47.402;8.550;2022-08-19T05:59:21;11.06;;;11.03;;
2710;SDS011;20721;47.402;8.550;2022-08-19T06:01:20;10.69;;;10.69;;
2710;SDS011;20721;47.402;8.550;2022-08-19T06:02:19;11.17;;;11.16;;
2710;SDS011;20721;47.402;8.550;2022-08-19T06:03:23;10.75;;;10.75;;
2710;SDS011;20721;47.402;8.550;2022-08-19T06:04:19;11.91;;;11.81;;
2710;SDS011;20721;47.402;8.550;2022-08-19T06:06:20;11.42;;;11.23;;
2710;SDS011;20721;47.402;8.550;2022-08-19T06:07:23;11.60;;;11.31;;
2710;SDS011;20721;47.402;8.550;2022-08-19T06:08:19;11.28;;;10.97;;
2710;SDS011;20721;47.402;8.550;2022-08-19T06:09:20;12.46;;;12.14;;
2710;SDS011;20721;47.402;8.550;2022-08-19T06:10:20;11.84;;;11.54;;
2710;SDS011;20721;47.402;8.550;2022-08-19T06:11:24;12.21;;;12.08;;
2710;SDS011;20721;47.402;8.550;2022-08-19T06:12:19;11.87;;;11.64;;
2710;SDS011;20721;47.402;8.550;2022-08-19T06:14:30;12.28;;;12.02;;
2710;SDS011;20721;47.402;8.550;2022-08-19T06:15:20;12.12;;;11.94;;
2710;SDS011;20721;47.402;8.550;2022-08-19T06:16:19;12.35;;;12.16;;
2710;SDS011;20721;47.402;8.550;2022-08-19T06:17:19;11.36;;;11.17;;
2710;SDS011;20721;47.402;8.550;2022-08-19T06:18:19;10.94;;;10.94;;
2710;SDS011;20721;47.402;8.550;2022-08-19T06:19:21;12.23;;;12.16;;
2710;SDS011;20721;47.402;8.550;2022-08-19T06:20:23;11.95;;;11.88;;
2710;SDS011;20721;47.402;8.550;2022-08-19T06:21:20;11.28;;;11.23;;
2710;SDS011;20721;47.402;8.550;2022-08-19T06:22:21;10.98;;;10.78;;
2710;SDS011;20721;47.402;8.550;2022-08-19T06:23:19;12.38;;;12.06;;
2710;SDS011;20721;47.402;8.550;2022-08-19T06:24:24;12.48;;;12.12;;
2710;SDS011;20721;47.402;8.550;2022-08-19T06:25:20;11.50;;;11.36;;
2710;SDS011;20721;47.402;8.550;2022-08-19T06:26:21;11.97;;;11.70;;
2710;SDS011;20721;47.402;8.550;2022-08-19T06:27:19;11.64;;;11.18;;
2710;SDS011;20721;47.402;8.550;2022-08-19T06:28:25;12.74;;;12.34;;
2710;SDS011;20721;47.402;8.550;2022-08-19T06:29:21;12.54;;;12.42;;
2710;SDS011;20721;47.402;8.550;2022-08-19T06:30:19;11.45;;;11.45;;
2710;SDS011;20721;47.402;8.550;2022-08-19T06:31:21;12.01;;;11.57;;
2710;SDS011;20721;47.402;8.550;2022-08-19T06:32:19;12.00;;;12.00;;
2710;SDS011;20721;47.402;8.550;2022-08-19T06:33:19;11.72;;;11.64;;
2710;SDS011;20721;47.402;8.550;2022-08-19T06:34:19;14.93;;;14.77;;
2710;SDS011;20721;47.402;8.550;2022-08-19T06:35:19;14.17;;;13.87;;
2710;SDS011;20721;47.402;8.550;2022-08-19T06:36:29;14.27;;;13.98;;
2710;SDS011;20721;47.402;8.550;2022-08-19T06:39:23;12.80;;;12.55;;
2710;SDS011;20721;47.402;8.550;2022-08-19T06:40:21;12.93;;;12.66;;
2710;SDS011;20721;47.402;8.550;2022-08-19T06:41:20;13.12;;;12.81;;
2710;SDS011;20721;47.402;8.550;2022-08-19T06:42:23;13.87;;;13.49;;
2710;SDS011;20721;47.402;8.550;2022-08-19T06:43:19;12.81;;;12.41;;
2710;SDS011;20721;47.402;8.550;2022-08-19T06:44:25;13.53;;;13.18;;
2710;SDS011;20721;47.402;8.550;2022-08-19T06:45:20;13.51;;;13.12;;
2710;SDS011;20721;47.402;8.550;2022-08-19T06:46:22;13.68;;;13.33;;
2710;SDS011;20721;47.402;8.550;2022-08-19T06:47:27;12.36;;;12.02;;
2710;SDS011;20721;47.402;8.550;2022-08-19T06:48:22;14.03;;;13.65;;
2710;SDS011;20721;47.402;8.550;2022-08-19T06:49:24;13.50;;;13.12;;
2710;SDS011;20721;47.402;8.550;2022-08-19T06:50:19;13.32;;;13.00;;
2710;SDS011;20721;47.402;8.550;2022-08-19T06:51:19;13.92;;;13.56;;
2710;SDS011;20721;47.402;8.550;2022-08-19T06:53:19;13.03;;;12.66;;
2710;SDS011;20721;47.402;8.550;2022-08-19T06:54:29;13.62;;;13.33;;
2710;SDS011;20721;47.402;8.550;2022-08-19T06:55:19;13.40;;;13.34;;
2710;SDS011;20721;47.402;8.550;2022-08-19T06:56:20;13.21;;;12.89;;
2710;SDS011;20721;47.402;8.550;2022-08-19T06:57:23;12.62;;;12.29;;
2710;SDS011;20721;47.402;8.550;2022-08-19T06:58:19;12.41;;;12.17;;
2710;SDS011;20721;47.402;8.550;2022-08-19T06:59:22;12.85;;;12.59;;
2710;SDS011;20721;47.402;8.550;2022-08-19T07:01:19;12.61;;;12.61;;
2710;SDS011;20721;47.402;8.550;2022-08-19T07:02:19;11.90;;;11.90;;
2710;SDS011;20721;47.402;8.550;2022-08-19T07:03:20;12.90;;;12.90;;
2710;SDS011;20721;47.402;8.550;2022-08-19T07:04:25;12.79;;;12.64;;
2710;SDS011;20721;47.402;8.550;2022-08-19T07:06:30;12.95;;;12.95;;
2710;SDS011;20721;47.402;8.550;2022-08-19T07:07:30;12.31;;;12.31;;
2710;SDS011;20721;47.402;8.550;2022-08-19T07:08:19;12.00;;;12.00;;
2710;SDS011;20721;47.402;8.550;2022-08-19T07:10:19;12.64;;;12.64;;
2710;SDS011;20721;47.402;8.550;2022-08-19T07:11:22;11.69;;;11.69;;
2710;SDS011;20721;47.402;8.550;2022-08-19T07:12:21;12.55;;;12.37;;
2710;SDS011;20721;47.402;8.550;2022-08-19T07:14:30;12.28;;;11.85;;
2710;SDS011;20721;47.402;8.550;2022-08-19T07:15:20;12.88;;;12.75;;
2710;SDS011;20721;47.402;8.550;2022-08-19T07:16:20;11.64;;;11.57;;
2710;SDS011;20721;47.402;8.550;2022-08-19T07:17:20;11.39;;;11.39;;
2710;SDS011;20721;47.402;8.550;2022-08-19T07:18:22;11.05;;;11.04;;
2710;SDS011;20721;47.402;8.550;2022-08-19T07:19:27;12.10;;;11.95;;
2710;SDS011;20721;47.402;8.550;2022-08-19T07:20:20;11.80;;;11.80;;
2710;SDS011;20721;47.402;8.550;2022-08-19T07:22:24;11.67;;;11.67;;
2710;SDS011;20721;47.402;8.550;2022-08-19T07:23:19;12.96;;;12.60;;
2710;SDS011;20721;47.402;8.550;2022-08-19T07:24:20;12.47;;;12.11;;
2710;SDS011;20721;47.402;8.550;2022-08-19T07:25:19;10.01;;;10.01;;
2710;SDS011;20721;47.402;8.550;2022-08-19T07:26:24;12.00;;;12.00;;
2710;SDS011;20721;47.402;8.550;2022-08-19T07:27:26;11.84;;;11.84;;
2710;SDS011;20721;47.402;8.550;2022-08-19T07:28:30;11.30;;;11.30;;
2710;SDS011;20721;47.402;8.550;2022-08-19T07:29:20;11.01;;;10.83;;
2710;SDS011;20721;47.402;8.550;2022-08-19T07:30:23;12.28;;;11.91;;
2710;SDS011;20721;47.402;8.550;2022-08-19T07:33:19;11.74;;;11.74;;
2710;SDS011;20721;47.402;8.550;2022-08-19T07:34:20;11.35;;;11.24;;
2710;SDS011;20721;47.402;8.550;2022-08-19T07:35:20;11.40;;;11.38;;
2710;SDS011;20721;47.402;8.550;2022-08-19T07:36:23;12.38;;;12.16;;
2710;SDS011;20721;47.402;8.550;2022-08-19T07:37:19;12.58;;;12.43;;
2710;SDS011;20721;47.402;8.550;2022-08-19T07:38:19;13.28;;;13.07;;
2710;SDS011;20721;47.402;8.550;2022-08-19T07:39:23;12.68;;;12.65;;
2710;SDS011;20721;47.402;8.550;2022-08-19T07:40:19;13.00;;;12.68;;
2710;SDS011;20721;47.402;8.550;2022-08-19T07:41:21;12.98;;;12.66;;
2710;SDS011;20721;47.402;8.550;2022-08-19T07:42:20;11.42;;;11.25;;
2710;SDS011;20721;47.402;8.550;2022-08-19T07:43:25;11.35;;;11.34;;